Time;durP1;ratioP1;P1;durP2;ratioP2;P2;SDS_P1;SDS_P2;PMS_P1;PMS_P2;Temp;Humidity;BMP_temperature;BMP_pressure;BME280_temperature;BME280_humidity;BME280_pressure;Samples;Min_cycle;Max_cycle;Signal;HPM_P1;HPM_P2
2021/04/08 00:00:26;;;;;;;;;;;;;;;-0.04;82.22;94241.19;5096444;28;19920;-77
2021/04/08 00:02:53;;;;;;;;;;;;;;;-0.01;83.58;94240.97;5096421;28;19927;-76
2021/04/08 00:05:19;;;;;;;;;;;;;;;0.06;81.57;94250.72;5096882;28;19919;-76
2021/04/08 00:07:45;;;;;;;;;;;;;;;0.10;79.91;94242.66;5096367;28;20428;-78
2021/04/08 00:10:12;;;;;;;;;;;;;;;0.10;80.72;94249.53;5096329;28;20014;-76
2021/04/08 00:12:38;;;;;;;;;;;;;;;0.09;81.19;94250.50;5096279;28;19927;-76
2021/04/08 00:15:05;;;;;;;;;;;;;;;-0.02;84.01;94248.78;5096109;28;19927;-76
2021/04/08 00:17:30;;;;;;;;;;;;;;;-0.09;84.71;94255.34;5096338;28;19924;-76
2021/04/08 00:19:57;;;;;;;;;;;;;;;-0.07;83.34;94251.72;5096009;28;20068;-77
2021/04/08 00:22:23;;;;;;;;;;;;;;;-0.15;84.51;94253.28;5096011;28;20385;-75
2021/04/08 00:24:49;;;;;;;;;;;;;;;-0.19;83.46;94255.28;5096055;28;20010;-75
2021/04/08 00:27:14;;;;;;;;;;;;;;;-0.26;85.62;94236.19;5096044;28;19951;-75
2021/04/08 00:29:40;;;;;;;;;;;;;;;-0.15;82.81;94253.28;5094906;28;19973;-75
2021/04/08 00:32:06;;;;;;;;;;;;;;;-0.13;82.90;94252.22;5095788;28;20002;-76
2021/04/08 00:34:32;;;;;;;;;;;;;;;-0.17;83.77;94255.97;5095946;28;19920;-76
2021/04/08 00:36:59;;;;;;;;;;;;;;;-0.15;84.21;94254.09;5095881;28;19927;-77
2021/04/08 00:39:25;;;;;;;;;;;;;;;-0.22;82.86;94256.34;5095916;28;19927;-78
2021/04/08 00:41:51;;;;;;;;;;;;;;;-0.23;83.00;94257.28;5095619;28;20286;-77
2021/04/08 00:44:16;;;;;;;;;;;;;;;-0.25;83.95;94259.16;5095606;28;19927;-75
2021/04/08 00:46:42;;;;;;;;;;;;;;;-0.30;84.24;94256.16;5095813;28;19924;-75
2021/04/08 00:49:08;;;;;;;;;;;;;;;-0.29;84.76;94267.22;5095386;28;20286;-76
2021/04/08 00:51:34;;;;;;;;;;;;;;;-0.24;84.30;94253.06;5095583;28;19924;-77
2021/04/08 00:54:01;;;;;;;;;;;;;;;-0.24;84.85;94265.09;5095481;28;19973;-76
2021/04/08 00:56:27;;;;;;;;;;;;;;;-0.20;85.08;94263.91;5095607;28;19920;-75
2021/04/08 00:58:53;;;;;;;;;;;;;;;-0.28;86.19;94264.53;5095236;28;20374;-76
2021/04/08 01:01:18;;;;;;;;;;;;;;;-0.28;85.27;94263.72;5095514;28;20339;-77
2021/04/08 01:03:44;;;;;;;;;;;;;;;-0.22;85.25;94263.22;5095354;28;19939;-79
2021/04/08 01:06:10;;;;;;;;;;;;;;;-0.32;86.16;94262.31;5095075;28;19920;-75
2021/04/08 01:08:37;;;;;;;;;;;;;;;-0.28;86.87;94264.53;5095149;28;19920;-76
2021/04/08 01:11:03;;;;;;;;;;;;;;;-0.33;88.15;94265.81;5095190;28;19924;-76
2021/04/08 01:13:30;;;;;;;;;;;;;;;-0.28;88.88;94268.84;5094405;28;20367;-75
2021/04/08 01:16:00;;;;;;;;;;;;;;;-0.22;86.98;94274.31;5095246;28;19924;-76
2021/04/08 01:18:32;;;;;;;;;;;;;;;-0.20;88.08;94285.25;5095115;28;19920;-76
2021/04/08 01:21:03;;;;;;;;;;;;;;;-0.17;87.06;94288.50;5095026;28;19920;-77
2021/04/08 01:23:38;;;;;;;;;;;;;;;-0.18;88.37;94290.28;5094932;28;19967;-76
2021/04/08 01:26:15;;;;;;;;;;;;;;;-0.24;91.53;94296.69;5094832;28;19927;-77
2021/04/08 01:28:43;;;;;;;;;;;;;;;-0.38;93.52;94300.34;5094920;28;19957;-76
2021/04/08 01:31:11;;;;;;;;;;;;;;;-0.47;97.69;94310.50;5094583;28;19920;-76
2021/04/08 01:33:40;;;;;;;;;;;;;;;-0.54;99.22;94306.81;5094792;28;19920;-76
2021/04/08 01:36:08;;;;;;;;;;;;;;;-0.78;100.00;94302.66;5094513;28;20290;-76
2021/04/08 01:38:38;;;;;;;;;;;;;;;-0.75;100.00;94302.38;5094558;28;19927;-77
2021/04/08 01:41:05;;;;;;;;;;;;;;;-0.72;100.00;94302.16;5093659;28;19923;-77
2021/04/08 01:43:33;;;;;;;;;;;;;;;-0.75;100.00;94307.53;5094322;28;20375;-76
2021/04/08 01:46:00;;;;;;;;;;;;;;;-0.76;100.00;94305.91;5094630;28;20539;-78
2021/04/08 01:48:27;;;;;;;;;;;;;;;-0.71;100.00;94308.13;5094347;28;20375;-76
2021/04/08 01:50:54;;;;;;;;;;;;;;;-0.80;100.00;94310.47;5094166;28;19927;-77
2021/04/08 01:53:21;;;;;;;;;;;;;;;-0.83;100.00;94305.56;5094392;28;19924;-78
2021/04/08 01:55:50;;;;;;;;;;;;;;;-0.77;100.00;94310.22;5094426;28;19927;-77
2021/04/08 01:58:16;;;;;;;;;;;;;;;-0.70;100.00;94312.28;5094175;28;19927;-75
2021/04/08 02:00:44;;;;;;;;;;;;;;;-0.73;100.00;94315.09;5094130;28;20497;-75
2021/04/08 02:03:10;;;;;;;;;;;;;;;-0.72;100.00;94316.72;5094143;28;19920;-77
2021/04/08 02:05:37;;;;;;;;;;;;;;;-0.64;100.00;94312.63;5094010;28;20329;-75
2021/04/08 02:08:04;;;;;;;;;;;;;;;-0.67;100.00;94310.31;5094269;28;19927;-75
2021/04/08 02:10:30;;;;;;;;;;;;;;;-0.68;99.96;94313.00;5094053;28;19928;-76
2021/04/08 02:12:56;;;;;;;;;;;;;;;-0.62;99.46;94312.53;5094053;28;19927;-77
2021/04/08 02:15:23;;;;;;;;;;;;;;;-0.68;100.00;94315.56;5094003;28;19935;-77
2021/04/08 02:17:50;;;;;;;;;;;;;;;-0.73;100.00;94315.09;5093892;28;19920;-76
2021/04/08 02:20:18;;;;;;;;;;;;;;;-0.78;100.00;94313.72;5093806;28;19920;-76
2021/04/08 02:22:45;;;;;;;;;;;;;;;-0.88;100.00;94317.09;5093751;28;20279;-76
2021/04/08 02:25:12;;;;;;;;;;;;;;;-0.82;100.00;94326.88;5093844;28;19924;-76
2021/04/08 02:27:39;;;;;;;;;;;;;;;-0.81;100.00;94326.75;5093859;28;20340;-76
2021/04/08 02:30:06;;;;;;;;;;;;;;;-0.83;100.00;94322.69;5093627;28;19920;-76
2021/04/08 02:32:32;;;;;;;;;;;;;;;-0.81;100.00;94324.19;5093644;28;19927;-74
2021/04/08 02:34:59;;;;;;;;;;;;;;;-0.88;100.00;94323.03;5093664;28;19963;-74
2021/04/08 02:37:24;;;;;;;;;;;;;;;-0.98;100.00;94328.06;5093922;28;19923;-75
2021/04/08 02:39:51;;;;;;;;;;;;;;;-0.96;100.00;94338.19;5093817;28;19926;-75
2021/04/08 02:42:17;;;;;;;;;;;;;;;-0.99;100.00;94330.72;5093562;28;19920;-77
2021/04/08 02:44:43;;;;;;;;;;;;;;;-0.99;100.00;94326.41;5093586;28;19942;-77
2021/04/08 02:47:08;;;;;;;;;;;;;;;-0.94;100.00;94331.19;5093455;28;20007;-76
2021/04/08 02:49:34;;;;;;;;;;;;;;;-1.08;100.00;94333.97;5093287;28;20668;-74
2021/04/08 02:52:03;;;;;;;;;;;;;;;-1.19;100.00;94329.69;5093144;28;19973;-77
2021/04/08 02:54:33;;;;;;;;;;;;;;;-1.28;100.00;94331.19;5093513;28;19927;-75
2021/04/08 02:57:00;;;;;;;;;;;;;;;-1.29;100.00;94334.66;5093760;28;20275;-77
2021/04/08 02:59:27;;;;;;;;;;;;;;;-1.30;100.00;94333.03;5093396;28;19920;-75
2021/04/08 03:01:55;;;;;;;;;;;;;;;-1.30;100.00;94338.16;5093228;28;20370;-76
2021/04/08 03:04:22;;;;;;;;;;;;;;;-1.24;100.00;94337.69;5093526;28;19920;-77
2021/04/08 03:06:49;;;;;;;;;;;;;;;-1.23;100.00;94334.22;5093447;28;19920;-75
2021/04/08 03:09:15;;;;;;;;;;;;;;;-1.22;100.00;94335.81;5093430;28;19924;-76
2021/04/08 03:11:42;;;;;;;;;;;;;;;-1.24;100.00;94337.69;5092765;28;19927;-75
2021/04/08 03:14:10;;;;;;;;;;;;;;;-1.26;100.00;94338.75;5093353;28;19920;-77
2021/04/08 03:16:37;;;;;;;;;;;;;;;-1.21;100.00;94342.59;5093303;28;20001;-76
2021/04/08 03:19:04;;;;;;;;;;;;;;;-1.26;100.00;94334.44;5093376;28;19927;-76
2021/04/08 03:21:30;;;;;;;;;;;;;;;-1.18;100.00;94339.81;5093389;28;19927;-76
2021/04/08 03:23:57;;;;;;;;;;;;;;;-1.21;100.00;94347.72;5093178;28;20283;-76
2021/04/08 03:26:24;;;;;;;;;;;;;;;-1.19;100.00;94347.59;5093286;28;19920;-76
2021/04/08 03:28:50;;;;;;;;;;;;;;;-1.23;100.00;94347.03;5093484;28;19927;-78
2021/04/08 03:31:18;;;;;;;;;;;;;;;-1.30;100.00;94345.81;5092919;28;19924;-77
2021/04/08 03:33:45;;;;;;;;;;;;;;;-1.32;100.00;94350.25;5093279;28;19939;-78
2021/04/08 03:36:11;;;;;;;;;;;;;;;-1.25;100.00;94360.84;5093004;28;19920;-77
2021/04/08 03:38:37;;;;;;;;;;;;;;;-1.24;100.00;94347.13;5093004;28;19919;-76
2021/04/08 03:41:03;;;;;;;;;;;;;;;-1.28;100.00;94351.69;5093058;28;19920;-77
2021/04/08 03:43:29;;;;;;;;;;;;;;;-1.37;100.00;94352.34;5092904;28;19962;-77
2021/04/08 03:45:57;;;;;;;;;;;;;;;-1.35;100.00;94351.31;5093163;28;19927;-75
2021/04/08 03:48:25;;;;;;;;;;;;;;;-1.31;100.00;94357.81;5093098;28;20328;-77
2021/04/08 03:50:51;;;;;;;;;;;;;;;-1.41;100.00;94356.06;5092938;28;19974;-77
2021/04/08 03:53:17;;;;;;;;;;;;;;;-1.32;100.00;94361.34;5092969;28;19967;-76
2021/04/08 03:55:44;;;;;;;;;;;;;;;-1.29;100.00;94355.16;5093054;28;19953;-76
2021/04/08 03:58:11;;;;;;;;;;;;;;;-1.40;100.00;94355.13;5092779;28;19999;-76
2021/04/08 04:00:37;;;;;;;;;;;;;;;-1.35;100.00;94361.56;5092787;28;19920;-76
2021/04/08 04:03:03;;;;;;;;;;;;;;;-1.36;100.00;94357.34;5092945;28;19920;-76
2021/04/08 04:05:30;;;;;;;;;;;;;;;-1.32;100.00;94365.63;5095986;28;19920;-76
2021/04/08 04:07:56;;;;;;;;;;;;;;;-1.42;100.00;94364.66;5096584;28;19920;-77
2021/04/08 04:10:22;;;;;;;;;;;;;;;-1.59;100.00;94364.16;5096248;28;19934;-76
2021/04/08 04:12:48;;;;;;;;;;;;;;;-1.61;100.00;94365.22;5096163;28;19920;-75
2021/04/08 04:15:15;;;;;;;;;;;;;;;-1.56;100.00;94366.50;5096450;28;20333;-76
2021/04/08 04:17:40;;;;;;;;;;;;;;;-1.59;100.00;94363.34;5096447;28;19942;-78
2021/04/08 04:20:07;;;;;;;;;;;;;;;-1.65;100.00;94369.72;5096058;28;19920;-77
2021/04/08 04:22:34;;;;;;;;;;;;;;;-1.46;100.00;94374.31;5096170;28;19927;-78
2021/04/08 04:25:00;;;;;;;;;;;;;;;-1.39;100.00;94367.00;5095945;28;19920;-77
2021/04/08 04:27:26;;;;;;;;;;;;;;;-1.39;100.00;94367.00;5095890;28;19920;-77
2021/04/08 04:29:51;;;;;;;;;;;;;;;-1.36;100.00;94366.78;5096011;28;19926;-77
2021/04/08 04:32:17;;;;;;;;;;;;;;;-1.33;100.00;94361.44;5095656;28;19920;-77
2021/04/08 04:34:43;;;;;;;;;;;;;;;-1.29;100.00;94378.19;5095927;28;19965;-75
2021/04/08 04:37:10;;;;;;;;;;;;;;;-1.34;100.00;94382.84;5095829;28;19920;-77
2021/04/08 04:39:37;;;;;;;;;;;;;;;-1.37;100.00;94375.38;5095758;28;19943;-76
2021/04/08 04:42:03;;;;;;;;;;;;;;;-1.46;100.00;94388.88;5095561;28;20359;-76
2021/04/08 04:44:29;;;;;;;;;;;;;;;-1.38;100.00;94386.56;5095886;28;19927;-76
2021/04/08 04:46:56;;;;;;;;;;;;;;;-1.35;100.00;94386.31;5095720;28;19923;-77
2021/04/08 04:49:21;;;;;;;;;;;;;;;-1.37;100.00;94390.75;5095570;28;20351;-76
2021/04/08 04:51:47;;;;;;;;;;;;;;;-1.37;100.00;94393.31;5095577;28;19920;-76
2021/04/08 04:54:13;;;;;;;;;;;;;;;-1.43;100.00;94383.50;5095397;28;19920;-76
2021/04/08 04:56:40;;;;;;;;;;;;;;;-1.43;100.00;94376.66;5095317;28;19931;-75
2021/04/08 04:59:05;;;;;;;;;;;;;;;-1.45;100.00;94390.50;5095729;28;19927;-77
2021/04/08 05:01:31;;;;;;;;;;;;;;;-1.50;100.00;94393.38;5095410;28;19920;-76
2021/04/08 05:03:57;;;;;;;;;;;;;;;-1.38;100.00;94392.50;5095366;28;20424;-76
2021/04/08 05:06:23;;;;;;;;;;;;;;;-1.41;100.00;94395.28;5095180;28;19919;-76
2021/04/08 05:08:49;;;;;;;;;;;;;;;-1.53;100.00;94404.69;5095200;28;19965;-75
2021/04/08 05:11:15;;;;;;;;;;;;;;;-1.49;100.00;94405.28;5094509;28;19953;-77
2021/04/08 05:13:41;;;;;;;;;;;;;;;-1.49;100.00;94411.19;5095406;28;20363;-77
2021/04/08 05:16:07;;;;;;;;;;;;;;;-1.36;100.00;94408.56;5094844;28;19920;-77
2021/04/08 05:18:33;;;;;;;;;;;;;;;-1.41;100.00;94408.09;5094859;28;19927;-77
2021/04/08 05:20:59;;;;;;;;;;;;;;;-1.39;100.00;94416.47;5094976;28;20033;-75
2021/04/08 05:23:25;;;;;;;;;;;;;;;-1.18;100.00;94414.09;5095062;28;19924;-77
2021/04/08 05:25:51;;;;;;;;;;;;;;;-1.18;100.00;94424.34;5095264;28;20283;-77
2021/04/08 05:28:17;;;;;;;;;;;;;;;-1.07;100.00;94422.72;5094976;28;19920;-78
2021/04/08 05:30:43;;;;;;;;;;;;;;;-1.10;100.00;94425.50;5094782;28;19920;-76
2021/04/08 05:33:09;;;;;;;;;;;;;;;-1.14;100.00;94424.94;5094623;28;19921;-76
2021/04/08 05:35:35;;;;;;;;;;;;;;;-1.13;100.00;94435.06;5094703;28;19966;-75
2021/04/08 05:38:01;;;;;;;;;;;;;;;-1.09;100.00;94442.53;5094516;28;19965;-75
2021/04/08 05:40:27;;;;;;;;;;;;;;;-1.12;100.00;94431.59;5094505;28;19934;-75
2021/04/08 05:42:53;;;;;;;;;;;;;;;-0.96;100.00;94436.38;5094653;28;19927;-78
2021/04/08 05:45:20;;;;;;;;;;;;;;;-0.92;100.00;94434.38;5094598;28;19920;-77
2021/04/08 05:47:46;;;;;;;;;;;;;;;-0.76;100.00;94428.94;5094531;28;20015;-76
2021/04/08 05:50:12;;;;;;;;;;;;;;;-0.58;100.00;94430.13;5094228;28;20367;-77
2021/04/08 05:52:38;;;;;;;;;;;;;;;-0.60;100.00;94431.16;5094199;28;20298;-76
2021/04/08 05:55:05;;;;;;;;;;;;;;;-0.55;100.00;94431.63;5094196;28;19927;-77
2021/04/08 05:57:31;;;;;;;;;;;;;;;-0.42;100.00;94432.34;5094247;28;20366;-77
2021/04/08 05:59:57;;;;;;;;;;;;;;;-0.20;100.00;94433.22;5094309;28;19927;-77
2021/04/08 06:02:23;;;;;;;;;;;;;;;-0.30;100.00;94432.31;5094284;28;20015;-78
2021/04/08 06:04:49;;;;;;;;;;;;;;;-0.16;100.00;94426.94;5094183;28;20286;-77
2021/04/08 06:07:15;;;;;;;;;;;;;;;0.05;100.00;94433.91;5094153;28;20393;-76
2021/04/08 06:09:41;;;;;;;;;;;;;;;0.27;100.00;94443.31;5094185;28;19963;-77
2021/04/08 06:12:07;;;;;;;;;;;;;;;0.30;98.65;94437.91;5093942;28;20326;-77
2021/04/08 06:14:33;;;;;;;;;;;;;;;0.15;100.00;94445.91;5094126;28;19919;-75
2021/04/08 06:16:59;;;;;;;;;;;;;;;0.14;97.49;94446.03;5094039;28;20484;-76
2021/04/08 06:19:25;;;;;;;;;;;;;;;0.18;99.22;94455.94;5093852;28;19924;-75
2021/04/08 06:21:52;;;;;;;;;;;;;;;0.12;98.61;94456.41;5094025;28;19961;-77
2021/04/08 06:24:18;;;;;;;;;;;;;;;0.02;100.00;94459.78;5093965;28;19926;-76
2021/04/08 06:26:43;;;;;;;;;;;;;;;0.08;99.47;94464.47;5093132;28;19920;-77
2021/04/08 06:29:09;;;;;;;;;;;;;;;-0.01;98.46;94466.81;5093790;28;19942;-78
2021/04/08 06:31:35;;;;;;;;;;;;;;;0.05;100.00;94465.53;5093550;28;19971;-77
2021/04/08 06:34:01;;;;;;;;;;;;;;;0.22;99.93;94471.91;5093695;28;19926;-76
2021/04/08 06:36:27;;;;;;;;;;;;;;;0.23;98.48;94457.31;5093581;28;19943;-76
2021/04/08 06:38:53;;;;;;;;;;;;;;;0.17;99.58;94468.91;5093776;28;19920;-76
2021/04/08 06:41:19;;;;;;;;;;;;;;;0.03;100.00;94471.72;5093715;28;19920;-75
2021/04/08 06:43:46;;;;;;;;;;;;;;;-0.05;100.00;94464.59;5093625;28;19931;-77
2021/04/08 06:46:15;;;;;;;;;;;;;;;0.17;99.64;94472.28;5093628;28;20360;-77
2021/04/08 06:48:42;;;;;;;;;;;;;;;0.36;98.09;94463.13;5093418;28;19920;-76
2021/04/08 06:51:11;;;;;;;;;;;;;;;0.42;98.18;94472.91;5093297;28;19942;-77
2021/04/08 06:53:37;;;;;;;;;;;;;;;0.26;98.15;94473.28;5093566;28;19920;-76
2021/04/08 06:56:07;;;;;;;;;;;;;;;0.04;98.09;94473.34;5093539;28;19920;-77
2021/04/08 06:58:33;;;;;;;;;;;;;;;-0.12;99.88;94479.66;5093528;28;19920;-76
2021/04/08 07:00:59;;;;;;;;;;;;;;;0.01;99.78;94479.53;5093424;28;20367;-77
2021/04/08 07:03:25;;;;;;;;;;;;;;;0.04;99.13;94475.91;5093511;28;19946;-76
2021/04/08 07:05:51;;;;;;;;;;;;;;;-0.01;98.92;94471.94;5093613;28;20023;-77
2021/04/08 07:08:17;;;;;;;;;;;;;;;0.05;99.33;94474.97;5093558;28;19955;-77
2021/04/08 07:10:43;;;;;;;;;;;;;;;0.06;98.18;94468.91;5093392;28;19926;-77
2021/04/08 07:13:09;;;;;;;;;;;;;;;0.00;99.74;94472.78;5093488;28;19988;-76
2021/04/08 07:15:35;;;;;;;;;;;;;;;0.23;99.44;94472.72;5093284;28;19981;-76
2021/04/08 07:18:01;;;;;;;;;;;;;;;0.21;100.00;94480.53;5093203;28;19920;-78
2021/04/08 07:20:27;;;;;;;;;;;;;;;0.55;98.22;94480.47;5093128;28;19920;-77
2021/04/08 07:23:07;;;;;;;;;;;;;;;0.79;95.45;94479.44;5093419;28;19965;-78
2021/04/08 07:25:32;;;;;;;;;;;;;;;0.97;95.11;94469.44;5093312;28;19935;-76
2021/04/08 07:27:58;;;;;;;;;;;;;;;1.23;91.06;94469.84;5093139;28;19920;-78
2021/04/08 07:30:26;;;;;;;;;;;;;;;1.22;91.02;94465.69;5093000;28;19920;-78
2021/04/08 07:32:57;;;;;;;;;;;;;;;1.26;93.53;94467.03;5093266;28;19920;-77
2021/04/08 07:35:23;;;;;;;;;;;;;;;1.72;89.20;94473.50;5093237;28;19920;-77
2021/04/08 07:37:54;;;;;;;;;;;;;;;1.71;88.95;94471.88;5093781;28;20425;-77
2021/04/08 07:40:21;;;;;;;;;;;;;;;1.96;87.47;94474.94;5096859;28;20375;-80
2021/04/08 07:42:47;;;;;;;;;;;;;;;1.95;89.12;94478.44;5097018;28;19923;-77
2021/04/08 07:45:22;;;;;;;;;;;;;;;2.14;87.30;94481.09;5096736;28;19920;-77
2021/04/08 07:47:56;;;;;;;;;;;;;;;2.64;88.70;94475.09;5096708;28;19920;-78
2021/04/08 07:50:22;;;;;;;;;;;;;;;3.06;81.96;94463.69;5096784;28;19927;-76
2021/04/08 07:52:49;;;;;;;;;;;;;;;3.20;82.35;94471.00;5096812;28;19924;-76
2021/04/08 07:55:16;;;;;;;;;;;;;;;3.79;78.85;94466.50;5096610;28;19931;-76
2021/04/08 07:57:49;;;;;;;;;;;;;;;3.76;74.55;94473.72;5096483;28;19926;-77
2021/04/08 08:00:17;;;;;;;;;;;;;;;3.72;70.61;94469.81;5096731;28;19919;-77
2021/04/08 08:02:42;;;;;;;;;;;;;;;3.57;76.71;94467.66;5096610;28;19927;-77
2021/04/08 08:05:16;;;;;;;;;;;;;;;3.89;75.63;94480.19;5096486;28;19920;-77
2021/04/08 08:07:42;;;;;;;;;;;;;;;4.28;72.79;94476.63;5096467;28;19966;-78
2021/04/08 08:10:13;;;;;;;;;;;;;;;3.88;74.73;94477.75;5095903;28;19920;-78
2021/04/08 08:12:39;;;;;;;;;;;;;;;3.85;73.31;94485.81;5096281;28;20475;-78
2021/04/08 08:15:12;;;;;;;;;;;;;;;4.08;69.79;94475.91;5096231;28;19932;-77
2021/04/08 08:17:38;;;;;;;;;;;;;;;3.92;67.45;94481.69;5096258;28;19920;-79
2021/04/08 08:20:04;;;;;;;;;;;;;;;4.20;72.42;94486.88;5096088;28;20286;-77
2021/04/08 08:22:34;;;;;;;;;;;;;;;4.87;63.08;94481.44;5096080;28;19923;-77
2021/04/08 08:25:01;;;;;;;;;;;;;;;5.15;63.03;94475.19;5096378;28;19920;-77
2021/04/08 08:27:36;;;;;;;;;;;;;;;5.27;60.68;94480.94;5096261;28;20006;-77
2021/04/08 08:30:02;;;;;;;;;;;;;;;5.11;66.09;94484.22;5096125;28;19927;-76
2021/04/08 08:32:28;;;;;;;;;;;;;;;5.02;64.82;94482.53;5095690;28;19927;-77
2021/04/08 08:34:54;;;;;;;;;;;;;;;5.24;59.40;94483.03;5095898;28;19920;-76
2021/04/08 08:37:20;;;;;;;;;;;;;;;4.72;57.54;94489.69;5095744;28;19927;-76
2021/04/08 08:39:48;;;;;;;;;;;;;;;4.58;58.36;94482.41;5096038;28;19923;-77
2021/04/08 08:42:16;;;;;;;;;;;;;;;4.43;60.21;94475.19;5095858;28;19926;-77
2021/04/08 08:44:43;;;;;;;;;;;;;;;4.53;59.60;94482.06;5095754;28;19920;-77
2021/04/08 08:47:12;;;;;;;;;;;;;;;3.87;59.82;94492.44;5095749;28;19920;-76
2021/04/08 08:49:40;;;;;;;;;;;;;;;3.40;64.67;94501.94;5094901;28;19926;-76
2021/04/08 08:52:06;;;;;;;;;;;;;;;2.95;63.68;94509.31;5094179;28;20432;-75
2021/04/08 08:54:33;;;;;;;;;;;;;;;2.96;64.18;94500.63;5093945;28;19919;-76
2021/04/08 08:57:00;;;;;;;;;;;;;;;3.22;65.68;94500.06;5094798;28;19920;-76
2021/04/08 08:59:27;;;;;;;;;;;;;;;3.39;64.86;94497.75;5095505;28;19920;-76
2021/04/08 09:01:52;;;;;;;;;;;;;;;3.61;62.89;94501.75;5095396;28;19920;-76
2021/04/08 09:04:18;;;;;;;;;;;;;;;3.74;63.91;94501.47;5095380;28;19946;-76
2021/04/08 09:06:45;;;;;;;;;;;;;;;3.98;63.09;94501.78;5095423;28;20325;-75
2021/04/08 09:09:14;;;;;;;;;;;;;;;3.37;65.25;94503.03;5095424;28;19920;-76
2021/04/08 09:11:41;;;;;;;;;;;;;;;3.54;64.44;94493.75;5094675;28;19926;-76
2021/04/08 09:14:08;;;;;;;;;;;;;;;3.49;65.15;94498.53;5095167;28;20024;-76
2021/04/08 09:16:42;;;;;;;;;;;;;;;3.46;63.98;94501.38;5095269;28;19920;-75
2021/04/08 09:19:09;;;;;;;;;;;;;;;3.60;66.85;94488.03;5095263;28;20286;-75
2021/04/08 09:21:45;;;;;;;;;;;;;;;4.06;69.30;94491.56;5094909;28;20374;-76
2021/04/08 09:24:11;;;;;;;;;;;;;;;4.74;63.14;94492.94;5095092;28;19927;-76
2021/04/08 09:26:38;;;;;;;;;;;;;;;5.10;65.42;94492.94;5095378;28;19920;-76
2021/04/08 09:29:04;;;;;;;;;;;;;;;5.42;61.74;94486.41;5095130;28;19934;-76
2021/04/08 09:31:31;;;;;;;;;;;;;;;5.79;57.95;94500.06;5094402;28;19924;-76
2021/04/08 09:33:58;;;;;;;;;;;;;;;5.96;56.67;94493.19;5094919;28;19924;-76
2021/04/08 09:36:33;;;;;;;;;;;;;;;5.57;60.50;94494.44;5094844;28;19920;-76
2021/04/08 09:39:14;;;;;;;;;;;;;;;5.35;57.92;94496.53;5094724;28;19920;-76
2021/04/08 09:41:41;;;;;;;;;;;;;;;5.10;56.76;94492.16;5094581;28;19920;-76
2021/04/08 09:44:07;;;;;;;;;;;;;;;4.50;58.91;94492.72;5094838;28;19927;-75
2021/04/08 09:46:37;;;;;;;;;;;;;;;4.39;58.06;94491.94;5094722;28;20286;-75
2021/04/08 09:49:03;;;;;;;;;;;;;;;4.01;60.04;94491.19;5094555;28;19963;-75
2021/04/08 09:51:34;;;;;;;;;;;;;;;3.93;62.43;94487.66;5094501;28;19927;-76
2021/04/08 09:54:04;;;;;;;;;;;;;;;4.34;64.18;94483.78;5094367;28;19920;-75
2021/04/08 09:56:41;;;;;;;;;;;;;;;4.44;60.24;94492.31;5094461;28;20018;-74
2021/04/08 09:59:07;;;;;;;;;;;;;;;4.50;60.46;94497.88;5094410;28;19942;-75
2021/04/08 10:01:33;;;;;;;;;;;;;;;4.21;62.23;94494.50;5093439;28;19920;-75
2021/04/08 10:04:09;;;;;;;;;;;;;;;4.34;61.06;94491.53;5094243;28;19973;-76
2021/04/08 10:06:35;;;;;;;;;;;;;;;4.43;62.24;94488.09;5094182;28;19924;-73
2021/04/08 10:09:05;;;;;;;;;;;;;;;4.51;61.16;94492.53;5094000;28;19920;-76
2021/04/08 10:11:31;;;;;;;;;;;;;;;5.07;60.43;94492.44;5094224;28;20295;-75
2021/04/08 10:13:57;;;;;;;;;;;;;;;5.50;59.25;94483.06;5094129;28;19920;-75
2021/04/08 10:16:23;;;;;;;;;;;;;;;5.51;56.90;94485.50;5094141;28;19924;-76
2021/04/08 10:18:58;;;;;;;;;;;;;;;4.94;58.27;94483.25;5093916;28;19942;-76
2021/04/08 10:21:25;;;;;;;;;;;;;;;5.08;55.73;94479.34;5093860;28;20282;-75
2021/04/08 10:23:52;;;;;;;;;;;;;;;4.88;55.87;94485.63;5094033;28;20386;-76
2021/04/08 10:26:19;;;;;;;;;;;;;;;4.70;57.01;94481.28;5094008;28;19926;-76
2021/04/08 10:28:46;;;;;;;;;;;;;;;4.61;53.56;94495.91;5093823;28;19924;-74
2021/04/08 10:31:13;;;;;;;;;;;;;;;4.51;54.86;94489.16;5093541;28;19920;-75
2021/04/08 10:33:39;;;;;;;;;;;;;;;4.72;56.13;94484.50;5093658;28;20378;-75
2021/04/08 10:36:05;;;;;;;;;;;;;;;4.62;57.92;94478.59;5093697;28;19924;-75
2021/04/08 10:38:31;;;;;;;;;;;;;;;4.98;57.82;94479.44;5093633;28;19920;-76
2021/04/08 10:40:58;;;;;;;;;;;;;;;5.66;55.92;94471.97;5093824;28;19920;-76
2021/04/08 10:43:24;;;;;;;;;;;;;;;5.72;51.61;94476.56;5093790;28;19966;-75
2021/04/08 10:45:50;;;;;;;;;;;;;;;5.69;54.39;94471.69;5093496;28;19920;-76
2021/04/08 10:48:16;;;;;;;;;;;;;;;5.74;54.18;94474.63;5093487;28;20390;-76
2021/04/08 10:50:42;;;;;;;;;;;;;;;5.55;52.64;94473.84;5093360;28;20011;-76
2021/04/08 10:53:08;;;;;;;;;;;;;;;5.78;55.05;94465.59;5093608;28;19924;-76
2021/04/08 10:55:35;;;;;;;;;;;;;;;6.76;56.55;94454.78;5093429;28;20282;-76
2021/04/08 10:58:00;;;;;;;;;;;;;;;6.85;51.98;94468.56;5093341;28;20018;-76
2021/04/08 11:00:26;;;;;;;;;;;;;;;6.38;49.26;94463.91;5093459;28;19926;-75
2021/04/08 11:02:53;;;;;;;;;;;;;;;5.79;48.83;94461.22;5093290;28;20332;-76
2021/04/08 11:05:20;;;;;;;;;;;;;;;5.34;50.93;94463.03;5093527;28;20136;-76
2021/04/08 11:07:48;;;;;;;;;;;;;;;5.62;51.77;94471.47;5093578;28;19926;-76
2021/04/08 11:10:14;;;;;;;;;;;;;;;5.57;53.03;94474.50;5093386;28;19920;-76
2021/04/08 11:12:41;;;;;;;;;;;;;;;5.36;51.73;94476.63;5093763;28;19920;-76
2021/04/08 11:15:08;;;;;;;;;;;;;;;5.46;55.55;94467.03;5097428;28;19924;-76
2021/04/08 11:17:35;;;;;;;;;;;;;;;5.48;54.22;94465.09;5096966;28;19928;-76
2021/04/08 11:20:02;;;;;;;;;;;;;;;6.00;51.83;94468.66;5097468;28;19943;-75
2021/04/08 11:22:29;;;;;;;;;;;;;;;6.29;54.01;94469.09;5097477;28;19919;-76
2021/04/08 11:24:55;;;;;;;;;;;;;;;6.10;51.65;94464.16;5097347;28;19974;-76
2021/04/08 11:27:25;;;;;;;;;;;;;;;6.47;50.82;94461.19;5097412;28;19919;-75
2021/04/08 11:29:52;;;;;;;;;;;;;;;6.76;48.91;94465.16;5097634;28;19961;-76
2021/04/08 11:32:18;;;;;;;;;;;;;;;6.27;48.86;94465.81;5096863;28;19920;-76
2021/04/08 11:34:45;;;;;;;;;;;;;;;6.27;50.38;94465.03;5097093;28;19960;-75
2021/04/08 11:37:11;;;;;;;;;;;;;;;6.66;51.66;94460.13;5097086;28;20385;-75
2021/04/08 11:39:38;;;;;;;;;;;;;;;7.02;46.46;94462.41;5096913;28;20392;-75
2021/04/08 11:42:17;;;;;;;;;;;;;;;7.24;49.57;94457.53;5096991;28;20285;-75
2021/04/08 11:44:43;;;;;;;;;;;;;;;7.45;48.58;94445.88;5096783;28;19981;-75
2021/04/08 11:47:14;;;;;;;;;;;;;;;7.74;48.94;94446.13;5096703;28;19920;-76
2021/04/08 11:49:45;;;;;;;;;;;;;;;6.98;48.79;94458.53;5096814;28;19927;-75
2021/04/08 11:52:11;;;;;;;;;;;;;;;7.17;46.34;94438.41;5096785;28;20355;-76
2021/04/08 11:54:52;;;;;;;;;;;;;;;7.14;50.17;94446.53;5096578;28;20271;-76
2021/04/08 11:57:18;;;;;;;;;;;;;;;6.62;48.71;94442.41;5096410;28;20379;-73
2021/04/08 11:59:44;;;;;;;;;;;;;;;6.40;49.08;94444.63;5096719;28;19950;-75
2021/04/08 12:02:10;;;;;;;;;;;;;;;5.90;50.77;94446.22;5096640;28;19920;-75
2021/04/08 12:04:47;;;;;;;;;;;;;;;6.06;50.66;94442.91;5096526;28;19924;-75
2021/04/08 12:07:13;;;;;;;;;;;;;;;6.61;50.84;94445.97;5096501;28;19920;-75
2021/04/08 12:09:39;;;;;;;;;;;;;;;6.82;48.56;94446.34;5096217;28;19920;-76
2021/04/08 12:12:06;;;;;;;;;;;;;;;6.85;52.09;94447.81;5096525;28;19924;-74
2021/04/08 12:14:51;;;;;;;;;;;;;;;6.55;48.43;94447.44;5096243;28;20387;-75
2021/04/08 12:17:17;;;;;;;;;;;;;;;6.39;48.58;94431.81;5096361;28;19927;-75
2021/04/08 12:19:43;;;;;;;;;;;;;;;6.15;50.19;94437.75;5096252;28;19920;-74
2021/04/08 12:22:10;;;;;;;;;;;;;;;6.17;51.42;94434.03;5096233;28;19920;-75
2021/04/08 12:24:36;;;;;;;;;;;;;;;6.79;46.39;94433.66;5095193;28;19920;-75
2021/04/08 12:27:02;;;;;;;;;;;;;;;7.17;47.13;94426.22;5096457;28;19927;-75
2021/04/08 12:29:28;;;;;;;;;;;;;;;7.27;48.14;94420.88;5096087;28;19920;-75
2021/04/08 12:31:54;;;;;;;;;;;;;;;7.02;49.98;94418.28;5095832;28;19971;-75
2021/04/08 12:34:20;;;;;;;;;;;;;;;7.07;51.84;94410.00;5095880;28;20294;-75
2021/04/08 12:36:47;;;;;;;;;;;;;;;7.33;45.90;94422.81;5095861;28;19924;-75
2021/04/08 12:39:13;;;;;;;;;;;;;;;6.65;46.73;94419.56;5096032;28;19924;-74
2021/04/08 12:41:39;;;;;;;;;;;;;;;6.65;49.00;94416.97;5095947;28;19920;-76
2021/04/08 12:44:05;;;;;;;;;;;;;;;7.02;49.24;94418.28;5095654;28;20394;-75
2021/04/08 12:46:31;;;;;;;;;;;;;;;7.85;48.73;94412.97;5095727;28;20287;-75